sensor_id;sensor_type;location;lat;lon;timestamp;temperature;humidity
5576;DHT22;2810;50.134;8.626;2023-03-13T00:00:15;8.60;99.90
5576;DHT22;2810;50.134;8.626;2023-03-13T00:02:41;8.60;99.90
5576;DHT22;2810;50.134;8.626;2023-03-13T00:05:10;8.70;99.90
5576;DHT22;2810;50.134;8.626;2023-03-13T00:07:35;8.70;99.90
5576;DHT22;2810;50.134;8.626;2023-03-13T00:10:00;8.70;99.90
5576;DHT22;2810;50.134;8.626;2023-03-13T00:12:26;8.80;99.90
5576;DHT22;2810;50.134;8.626;2023-03-13T00:14:51;9.20;99.90
5576;DHT22;2810;50.134;8.626;2023-03-13T00:17:17;8.90;99.90
5576;DHT22;2810;50.134;8.626;2023-03-13T00:19:42;9.00;99.90
5576;DHT22;2810;50.134;8.626;2023-03-13T00:22:08;9.10;99.90
5576;DHT22;2810;50.134;8.626;2023-03-13T00:24:33;9.20;99.90
5576;DHT22;2810;50.134;8.626;2023-03-13T00:26:58;9.60;99.90
5576;DHT22;2810;50.134;8.626;2023-03-13T00:29:28;9.30;99.90
5576;DHT22;2810;50.134;8.626;2023-03-13T00:31:54;9.70;99.90
5576;DHT22;2810;50.134;8.626;2023-03-13T00:34:19;9.40;99.90
5576;DHT22;2810;50.134;8.626;2023-03-13T00:36:45;9.60;99.90
5576;DHT22;2810;50.134;8.626;2023-03-13T00:39:10;9.40;99.90
5576;DHT22;2810;50.134;8.626;2023-03-13T00:41:36;9.40;99.90
5576;DHT22;2810;50.134;8.626;2023-03-13T00:44:02;9.40;99.90
5576;DHT22;2810;50.134;8.626;2023-03-13T00:46:28;9.40;99.90
5576;DHT22;2810;50.134;8.626;2023-03-13T00:48:54;9.40;99.90
5576;DHT22;2810;50.134;8.626;2023-03-13T00:51:20;9.40;99.90
5576;DHT22;2810;50.134;8.626;2023-03-13T00:53:46;9.30;99.90
5576;DHT22;2810;50.134;8.626;2023-03-13T00:56:12;9.30;99.90
5576;DHT22;2810;50.134;8.626;2023-03-13T00:58:39;9.30;99.90
5576;DHT22;2810;50.134;8.626;2023-03-13T01:01:07;9.40;99.90
5576;DHT22;2810;50.134;8.626;2023-03-13T01:03:33;9.40;99.90
5576;DHT22;2810;50.134;8.626;2023-03-13T01:05:59;9.40;99.90
5576;DHT22;2810;50.134;8.626;2023-03-13T01:08:25;9.30;99.90
5576;DHT22;2810;50.134;8.626;2023-03-13T01:10:56;9.40;99.90
5576;DHT22;2810;50.134;8.626;2023-03-13T01:13:21;9.40;99.90
5576;DHT22;2810;50.134;8.626;2023-03-13T01:15:47;9.40;99.90
5576;DHT22;2810;50.134;8.626;2023-03-13T01:18:12;9.40;99.90
5576;DHT22;2810;50.134;8.626;2023-03-13T01:20:39;9.50;99.90
5576;DHT22;2810;50.134;8.626;2023-03-13T01:23:05;9.50;99.90
5576;DHT22;2810;50.134;8.626;2023-03-13T01:25:30;9.60;99.90
5576;DHT22;2810;50.134;8.626;2023-03-13T01:27:56;9.60;99.90
5576;DHT22;2810;50.134;8.626;2023-03-13T01:30:21;9.60;99.90
5576;DHT22;2810;50.134;8.626;2023-03-13T01:32:47;9.60;99.90
5576;DHT22;2810;50.134;8.626;2023-03-13T01:35:12;9.70;99.90
5576;DHT22;2810;50.134;8.626;2023-03-13T01:37:38;9.60;99.90
5576;DHT22;2810;50.134;8.626;2023-03-13T01:40:03;9.70;99.90
5576;DHT22;2810;50.134;8.626;2023-03-13T01:42:29;9.80;99.90
5576;DHT22;2810;50.134;8.626;2023-03-13T01:44:55;9.80;99.90
5576;DHT22;2810;50.134;8.626;2023-03-13T01:47:21;9.80;99.90
5576;DHT22;2810;50.134;8.626;2023-03-13T01:49:46;9.80;99.90
5576;DHT22;2810;50.134;8.626;2023-03-13T01:57:04;9.80;99.90
5576;DHT22;2810;50.134;8.626;2023-03-13T01:59:31;10.00;99.90
5576;DHT22;2810;50.134;8.626;2023-03-13T02:01:58;9.90;99.90
5576;DHT22;2810;50.134;8.626;2023-03-13T02:04:25;9.90;99.90
5576;DHT22;2810;50.134;8.626;2023-03-13T02:06:52;10.00;99.90
5576;DHT22;2810;50.134;8.626;2023-03-13T02:09:20;9.90;99.90
5576;DHT22;2810;50.134;8.626;2023-03-13T02:11:53;10.20;99.90
5576;DHT22;2810;50.134;8.626;2023-03-13T02:14:20;9.90;99.90
5576;DHT22;2810;50.134;8.626;2023-03-13T02:16:47;9.80;99.90
5576;DHT22;2810;50.134;8.626;2023-03-13T02:19:17;9.90;99.90
5576;DHT22;2810;50.134;8.626;2023-03-13T02:22:04;10.10;99.90
5576;DHT22;2810;50.134;8.626;2023-03-13T02:26:57;9.80;99.90
5576;DHT22;2810;50.134;8.626;2023-03-13T02:29:22;9.80;99.90
5576;DHT22;2810;50.134;8.626;2023-03-13T02:31:49;9.80;99.90
5576;DHT22;2810;50.134;8.626;2023-03-13T02:34:17;9.80;99.90
5576;DHT22;2810;50.134;8.626;2023-03-13T02:36:43;9.70;99.90
5576;DHT22;2810;50.134;8.626;2023-03-13T02:39:10;9.70;99.90
5576;DHT22;2810;50.134;8.626;2023-03-13T02:41:37;9.70;99.90
5576;DHT22;2810;50.134;8.626;2023-03-13T02:44:04;9.70;99.90
5576;DHT22;2810;50.134;8.626;2023-03-13T02:46:33;9.60;99.90
5576;DHT22;2810;50.134;8.626;2023-03-13T02:49:16;9.70;99.90
5576;DHT22;2810;50.134;8.626;2023-03-13T02:51:43;9.60;99.90
5576;DHT22;2810;50.134;8.626;2023-03-13T02:54:11;9.60;99.90
5576;DHT22;2810;50.134;8.626;2023-03-13T02:56:37;9.60;99.90
5576;DHT22;2810;50.134;8.626;2023-03-13T02:59:04;9.60;99.90
5576;DHT22;2810;50.134;8.626;2023-03-13T03:01:31;9.60;99.90
5576;DHT22;2810;50.134;8.626;2023-03-13T03:03:57;9.60;99.90
5576;DHT22;2810;50.134;8.626;2023-03-13T03:06:22;9.60;99.90
5576;DHT22;2810;50.134;8.626;2023-03-13T03:08:48;9.60;99.90
5576;DHT22;2810;50.134;8.626;2023-03-13T03:11:13;9.60;99.90
5576;DHT22;2810;50.134;8.626;2023-03-13T03:13:39;9.60;99.90
5576;DHT22;2810;50.134;8.626;2023-03-13T03:16:05;9.50;99.90
5576;DHT22;2810;50.134;8.626;2023-03-13T03:18:30;9.50;99.90
5576;DHT22;2810;50.134;8.626;2023-03-13T03:20:56;9.50;99.90
5576;DHT22;2810;50.134;8.626;2023-03-13T03:23:21;9.50;99.90
5576;DHT22;2810;50.134;8.626;2023-03-13T03:25:47;9.50;99.90
5576;DHT22;2810;50.134;8.626;2023-03-13T03:28:12;9.50;99.90
5576;DHT22;2810;50.134;8.626;2023-03-13T03:30:37;9.50;99.90
5576;DHT22;2810;50.134;8.626;2023-03-13T03:33:03;9.50;99.90
5576;DHT22;2810;50.134;8.626;2023-03-13T03:35:28;9.50;99.90
5576;DHT22;2810;50.134;8.626;2023-03-13T03:37:54;9.50;99.90
5576;DHT22;2810;50.134;8.626;2023-03-13T03:40:19;9.50;99.90
5576;DHT22;2810;50.134;8.626;2023-03-13T03:42:45;9.40;99.90
5576;DHT22;2810;50.134;8.626;2023-03-13T03:45:11;9.40;99.90
5576;DHT22;2810;50.134;8.626;2023-03-13T03:47:36;9.40;99.90
5576;DHT22;2810;50.134;8.626;2023-03-13T03:50:02;9.30;99.90
5576;DHT22;2810;50.134;8.626;2023-03-13T03:52:28;9.30;99.90
5576;DHT22;2810;50.134;8.626;2023-03-13T03:54:54;9.20;99.90
5576;DHT22;2810;50.134;8.626;2023-03-13T03:57:19;9.20;99.90
5576;DHT22;2810;50.134;8.626;2023-03-13T03:59:45;9.20;99.90
5576;DHT22;2810;50.134;8.626;2023-03-13T04:02:10;9.10;99.90
5576;DHT22;2810;50.134;8.626;2023-03-13T04:04:36;9.10;99.90
5576;DHT22;2810;50.134;8.626;2023-03-13T04:07:01;9.10;99.90
5576;DHT22;2810;50.134;8.626;2023-03-13T04:09:27;9.10;99.90
5576;DHT22;2810;50.134;8.626;2023-03-13T04:11:52;9.10;99.90
5576;DHT22;2810;50.134;8.626;2023-03-13T04:14:17;9.10;99.90
5576;DHT22;2810;50.134;8.626;2023-03-13T04:16:43;9.00;99.90
5576;DHT22;2810;50.134;8.626;2023-03-13T04:19:08;9.00;99.90
5576;DHT22;2810;50.134;8.626;2023-03-13T04:21:34;9.00;99.90
5576;DHT22;2810;50.134;8.626;2023-03-13T04:23:59;9.00;99.90
5576;DHT22;2810;50.134;8.626;2023-03-13T04:26:25;9.00;99.90
5576;DHT22;2810;50.134;8.626;2023-03-13T04:28:50;9.00;99.90
5576;DHT22;2810;50.134;8.626;2023-03-13T04:31:15;9.10;99.90
5576;DHT22;2810;50.134;8.626;2023-03-13T04:33:41;9.00;99.90
5576;DHT22;2810;50.134;8.626;2023-03-13T04:36:06;9.00;99.90
5576;DHT22;2810;50.134;8.626;2023-03-13T04:38:32;9.00;99.90
5576;DHT22;2810;50.134;8.626;2023-03-13T04:40:57;9.00;99.90
5576;DHT22;2810;50.134;8.626;2023-03-13T04:43:23;9.00;99.90
5576;DHT22;2810;50.134;8.626;2023-03-13T04:45:50;9.30;99.90
5576;DHT22;2810;50.134;8.626;2023-03-13T04:48:15;9.00;99.90
5576;DHT22;2810;50.134;8.626;2023-03-13T04:50:41;9.00;99.90
5576;DHT22;2810;50.134;8.626;2023-03-13T04:53:06;9.10;99.90
5576;DHT22;2810;50.134;8.626;2023-03-13T04:55:32;9.00;99.90
5576;DHT22;2810;50.134;8.626;2023-03-13T04:57:57;9.10;99.90
5576;DHT22;2810;50.134;8.626;2023-03-13T05:00:23;9.10;99.90
5576;DHT22;2810;50.134;8.626;2023-03-13T05:02:48;9.10;99.90
5576;DHT22;2810;50.134;8.626;2023-03-13T05:05:14;9.10;99.90
5576;DHT22;2810;50.134;8.626;2023-03-13T05:07:39;9.10;99.90
5576;DHT22;2810;50.134;8.626;2023-03-13T05:10:05;9.10;99.90
5576;DHT22;2810;50.134;8.626;2023-03-13T05:12:30;9.20;99.90
5576;DHT22;2810;50.134;8.626;2023-03-13T05:14:56;9.20;99.90
5576;DHT22;2810;50.134;8.626;2023-03-13T05:17:21;9.20;99.90
5576;DHT22;2810;50.134;8.626;2023-03-13T05:19:47;9.30;99.90
5576;DHT22;2810;50.134;8.626;2023-03-13T05:22:12;9.30;99.90
5576;DHT22;2810;50.134;8.626;2023-03-13T05:24:38;9.40;99.90
5576;DHT22;2810;50.134;8.626;2023-03-13T05:27:03;9.50;99.90
5576;DHT22;2810;50.134;8.626;2023-03-13T05:29:29;9.50;99.90
5576;DHT22;2810;50.134;8.626;2023-03-13T05:31:54;9.60;99.90
5576;DHT22;2810;50.134;8.626;2023-03-13T05:34:20;9.80;99.90
5576;DHT22;2810;50.134;8.626;2023-03-13T05:36:45;9.70;99.90
5576;DHT22;2810;50.134;8.626;2023-03-13T05:39:10;9.80;99.90
5576;DHT22;2810;50.134;8.626;2023-03-13T05:41:36;9.80;99.90
5576;DHT22;2810;50.134;8.626;2023-03-13T05:44:01;9.80;99.90
5576;DHT22;2810;50.134;8.626;2023-03-13T05:46:27;9.80;99.90
5576;DHT22;2810;50.134;8.626;2023-03-13T05:48:52;10.10;99.90
5576;DHT22;2810;50.134;8.626;2023-03-13T05:51:18;9.90;99.90
5576;DHT22;2810;50.134;8.626;2023-03-13T05:53:43;9.90;99.90
5576;DHT22;2810;50.134;8.626;2023-03-13T05:56:09;9.90;99.90
5576;DHT22;2810;50.134;8.626;2023-03-13T05:58:34;10.00;99.90
5576;DHT22;2810;50.134;8.626;2023-03-13T06:01:04;10.00;99.90
5576;DHT22;2810;50.134;8.626;2023-03-13T06:03:30;10.00;99.90
5576;DHT22;2810;50.134;8.626;2023-03-13T06:05:58;10.10;99.90
5576;DHT22;2810;50.134;8.626;2023-03-13T06:08:23;10.10;99.90
5576;DHT22;2810;50.134;8.626;2023-03-13T06:10:49;10.10;99.90
5576;DHT22;2810;50.134;8.626;2023-03-13T06:13:14;10.10;99.90
5576;DHT22;2810;50.134;8.626;2023-03-13T06:18:08;10.10;99.90
5576;DHT22;2810;50.134;8.626;2023-03-13T06:20:33;10.20;99.90
5576;DHT22;2810;50.134;8.626;2023-03-13T06:22:59;10.20;99.90
5576;DHT22;2810;50.134;8.626;2023-03-13T06:25:24;10.60;99.90
5576;DHT22;2810;50.134;8.626;2023-03-13T06:27:50;10.20;99.90
5576;DHT22;2810;50.134;8.626;2023-03-13T06:30:15;10.20;99.90
5576;DHT22;2810;50.134;8.626;2023-03-13T06:32:41;10.20;99.90
5576;DHT22;2810;50.134;8.626;2023-03-13T06:35:06;10.20;99.90
5576;DHT22;2810;50.134;8.626;2023-03-13T06:37:32;10.20;99.90
5576;DHT22;2810;50.134;8.626;2023-03-13T06:39:58;10.50;99.90
5576;DHT22;2810;50.134;8.626;2023-03-13T06:42:23;10.30;99.90
5576;DHT22;2810;50.134;8.626;2023-03-13T06:44:49;10.30;99.90
5576;DHT22;2810;50.134;8.626;2023-03-13T06:47:14;10.30;99.90
5576;DHT22;2810;50.134;8.626;2023-03-13T06:49:40;10.40;99.90
5576;DHT22;2810;50.134;8.626;2023-03-13T06:52:05;10.40;99.90
5576;DHT22;2810;50.134;8.626;2023-03-13T06:54:31;10.60;99.90
5576;DHT22;2810;50.134;8.626;2023-03-13T06:56:56;10.50;99.90
5576;DHT22;2810;50.134;8.626;2023-03-13T06:59:21;10.50;99.90
5576;DHT22;2810;50.134;8.626;2023-03-13T07:01:47;10.60;99.90
5576;DHT22;2810;50.134;8.626;2023-03-13T07:04:12;10.60;99.90
5576;DHT22;2810;50.134;8.626;2023-03-13T07:06:38;10.70;99.90
5576;DHT22;2810;50.134;8.626;2023-03-13T07:09:03;10.70;99.90
5576;DHT22;2810;50.134;8.626;2023-03-13T07:11:29;10.80;99.90
5576;DHT22;2810;50.134;8.626;2023-03-13T07:13:54;10.80;99.90
5576;DHT22;2810;50.134;8.626;2023-03-13T07:16:20;10.90;99.90
5576;DHT22;2810;50.134;8.626;2023-03-13T07:18:46;10.90;99.90
5576;DHT22;2810;50.134;8.626;2023-03-13T07:21:12;11.00;99.90
5576;DHT22;2810;50.134;8.626;2023-03-13T07:23:38;11.10;99.90
5576;DHT22;2810;50.134;8.626;2023-03-13T07:26:04;11.10;99.90
5576;DHT22;2810;50.134;8.626;2023-03-13T07:28:30;11.10;99.90
5576;DHT22;2810;50.134;8.626;2023-03-13T07:31:06;11.20;99.90
5576;DHT22;2810;50.134;8.626;2023-03-13T07:33:32;11.30;99.90
5576;DHT22;2810;50.134;8.626;2023-03-13T07:35:58;11.60;99.90
5576;DHT22;2810;50.134;8.626;2023-03-13T07:38:23;11.60;99.90
5576;DHT22;2810;50.134;8.626;2023-03-13T07:40:52;11.40;99.90
5576;DHT22;2810;50.134;8.626;2023-03-13T07:43:18;11.40;99.90
5576;DHT22;2810;50.134;8.626;2023-03-13T07:48:15;11.40;99.90
5576;DHT22;2810;50.134;8.626;2023-03-13T07:50:41;11.50;99.90
5576;DHT22;2810;50.134;8.626;2023-03-13T07:53:06;11.60;99.90
5576;DHT22;2810;50.134;8.626;2023-03-13T07:55:32;11.60;99.90
5576;DHT22;2810;50.134;8.626;2023-03-13T07:57:58;11.70;99.90
5576;DHT22;2810;50.134;8.626;2023-03-13T08:00:23;11.70;99.90
5576;DHT22;2810;50.134;8.626;2023-03-13T08:02:49;11.70;99.90
5576;DHT22;2810;50.134;8.626;2023-03-13T08:05:14;11.70;99.90
5576;DHT22;2810;50.134;8.626;2023-03-13T08:07:40;11.80;99.90
5576;DHT22;2810;50.134;8.626;2023-03-13T08:10:07;11.80;99.90
5576;DHT22;2810;50.134;8.626;2023-03-13T08:12:33;11.90;99.90
5576;DHT22;2810;50.134;8.626;2023-03-13T08:14:58;12.00;99.90
5576;DHT22;2810;50.134;8.626;2023-03-13T08:17:24;12.10;99.90
5576;DHT22;2810;50.134;8.626;2023-03-13T08:19:49;12.10;99.90
5576;DHT22;2810;50.134;8.626;2023-03-13T08:22:14;12.10;99.90
5576;DHT22;2810;50.134;8.626;2023-03-13T08:24:40;12.20;99.90
5576;DHT22;2810;50.134;8.626;2023-03-13T08:27:05;12.30;99.90
5576;DHT22;2810;50.134;8.626;2023-03-13T08:29:31;12.30;99.90
5576;DHT22;2810;50.134;8.626;2023-03-13T08:31:56;12.40;99.90
5576;DHT22;2810;50.134;8.626;2023-03-13T08:34:22;12.50;99.90
5576;DHT22;2810;50.134;8.626;2023-03-13T08:36:47;12.60;99.90
5576;DHT22;2810;50.134;8.626;2023-03-13T08:39:14;12.70;99.90
5576;DHT22;2810;50.134;8.626;2023-03-13T08:41:40;13.10;99.90
5576;DHT22;2810;50.134;8.626;2023-03-13T08:44:06;12.90;99.90
5576;DHT22;2810;50.134;8.626;2023-03-13T08:46:33;12.90;99.90
5576;DHT22;2810;50.134;8.626;2023-03-13T08:48:58;13.00;99.90
5576;DHT22;2810;50.134;8.626;2023-03-13T08:51:25;13.10;99.90
5576;DHT22;2810;50.134;8.626;2023-03-13T08:53:50;13.10;99.90
5576;DHT22;2810;50.134;8.626;2023-03-13T08:56:17;13.10;99.90
5576;DHT22;2810;50.134;8.626;2023-03-13T08:58:43;13.20;99.90
5576;DHT22;2810;50.134;8.626;2023-03-13T09:01:10;13.20;99.90
5576;DHT22;2810;50.134;8.626;2023-03-13T09:03:35;13.20;99.90
5576;DHT22;2810;50.134;8.626;2023-03-13T09:06:01;13.10;99.90
5576;DHT22;2810;50.134;8.626;2023-03-13T09:08:27;13.10;99.90
5576;DHT22;2810;50.134;8.626;2023-03-13T09:10:56;13.10;99.90
5576;DHT22;2810;50.134;8.626;2023-03-13T09:13:22;13.10;99.90
5576;DHT22;2810;50.134;8.626;2023-03-13T09:15:58;13.20;99.90
5576;DHT22;2810;50.134;8.626;2023-03-13T09:18:24;13.20;99.90
5576;DHT22;2810;50.134;8.626;2023-03-13T09:20:51;13.20;99.90
5576;DHT22;2810;50.134;8.626;2023-03-13T09:23:17;13.20;99.90
5576;DHT22;2810;50.134;8.626;2023-03-13T09:25:43;13.30;99.90
5576;DHT22;2810;50.134;8.626;2023-03-13T09:28:08;13.30;99.90
5576;DHT22;2810;50.134;8.626;2023-03-13T09:30:34;13.40;99.90
5576;DHT22;2810;50.134;8.626;2023-03-13T09:32:59;13.30;99.90
5576;DHT22;2810;50.134;8.626;2023-03-13T09:35:25;13.30;99.90
5576;DHT22;2810;50.134;8.626;2023-03-13T09:37:50;13.40;99.90
5576;DHT22;2810;50.134;8.626;2023-03-13T09:40:16;13.40;99.90
5576;DHT22;2810;50.134;8.626;2023-03-13T09:42:50;13.50;99.90
5576;DHT22;2810;50.134;8.626;2023-03-13T09:45:17;13.50;99.90
5576;DHT22;2810;50.134;8.626;2023-03-13T09:47:47;13.50;99.90
5576;DHT22;2810;50.134;8.626;2023-03-13T09:50:21;13.50;99.90
5576;DHT22;2810;50.134;8.626;2023-03-13T09:52:48;13.50;99.90
5576;DHT22;2810;50.134;8.626;2023-03-13T09:55:20;13.50;99.90
5576;DHT22;2810;50.134;8.626;2023-03-13T09:57:51;13.50;99.90
5576;DHT22;2810;50.134;8.626;2023-03-13T10:00:21;13.60;99.90
5576;DHT22;2810;50.134;8.626;2023-03-13T10:05:32;13.60;99.90
5576;DHT22;2810;50.134;8.626;2023-03-13T10:08:09;13.60;99.90
5576;DHT22;2810;50.134;8.626;2023-03-13T10:10:39;13.60;99.90
5576;DHT22;2810;50.134;8.626;2023-03-13T10:13:21;13.70;99.90
5576;DHT22;2810;50.134;8.626;2023-03-13T10:15:54;13.70;99.90
5576;DHT22;2810;50.134;8.626;2023-03-13T10:18:21;13.80;99.90
5576;DHT22;2810;50.134;8.626;2023-03-13T10:20:51;13.90;99.90
5576;DHT22;2810;50.134;8.626;2023-03-13T10:23:24;14.10;99.90
5576;DHT22;2810;50.134;8.626;2023-03-13T10:25:51;14.60;99.90
5576;DHT22;2810;50.134;8.626;2023-03-13T10:28:17;14.80;99.90
5576;DHT22;2810;50.134;8.626;2023-03-13T10:30:51;14.70;99.90
5576;DHT22;2810;50.134;8.626;2023-03-13T10:33:28;14.60;99.90
5576;DHT22;2810;50.134;8.626;2023-03-13T10:36:04;14.50;99.90
5576;DHT22;2810;50.134;8.626;2023-03-13T10:38:31;14.50;99.90
5576;DHT22;2810;50.134;8.626;2023-03-13T10:40:58;14.40;99.90
5576;DHT22;2810;50.134;8.626;2023-03-13T10:43:24;14.30;99.90
5576;DHT22;2810;50.134;8.626;2023-03-13T10:45:50;14.30;99.90
5576;DHT22;2810;50.134;8.626;2023-03-13T10:50:46;14.30;99.90
5576;DHT22;2810;50.134;8.626;2023-03-13T10:53:20;14.40;99.90
5576;DHT22;2810;50.134;8.626;2023-03-13T10:55:45;14.50;99.90
5576;DHT22;2810;50.134;8.626;2023-03-13T10:58:18;14.50;99.90
5576;DHT22;2810;50.134;8.626;2023-03-13T11:00:44;14.60;99.90
5576;DHT22;2810;50.134;8.626;2023-03-13T11:03:22;14.70;99.90
5576;DHT22;2810;50.134;8.626;2023-03-13T11:05:55;14.80;99.90
5576;DHT22;2810;50.134;8.626;2023-03-13T11:08:22;14.80;99.90
5576;DHT22;2810;50.134;8.626;2023-03-13T11:10:52;14.90;99.90
5576;DHT22;2810;50.134;8.626;2023-03-13T11:13:27;15.00;99.90
5576;DHT22;2810;50.134;8.626;2023-03-13T11:15:53;14.90;99.90
5576;DHT22;2810;50.134;8.626;2023-03-13T11:20:46;14.90;99.90
5576;DHT22;2810;50.134;8.626;2023-03-13T11:28:16;15.00;99.90
5576;DHT22;2810;50.134;8.626;2023-03-13T11:30:48;14.70;99.90
5576;DHT22;2810;50.134;8.626;2023-03-13T11:33:28;14.70;99.90
5576;DHT22;2810;50.134;8.626;2023-03-13T11:36:01;14.70;99.90
5576;DHT22;2810;50.134;8.626;2023-03-13T11:41:08;14.70;99.90
5576;DHT22;2810;50.134;8.626;2023-03-13T11:46:24;14.70;99.90
5576;DHT22;2810;50.134;8.626;2023-03-13T11:49:03;14.70;99.90
5576;DHT22;2810;50.134;8.626;2023-03-13T11:54:34;14.70;99.90
5576;DHT22;2810;50.134;8.626;2023-03-13T11:57:17;14.70;99.90
5576;DHT22;2810;50.134;8.626;2023-03-13T12:04:53;14.80;99.90
5576;DHT22;2810;50.134;8.626;2023-03-13T12:09:49;15.00;99.90
5576;DHT22;2810;50.134;8.626;2023-03-13T12:12:25;15.10;99.90
5576;DHT22;2810;50.134;8.626;2023-03-13T12:14:57;15.20;99.90
5576;DHT22;2810;50.134;8.626;2023-03-13T12:17:28;15.10;99.90
5576;DHT22;2810;50.134;8.626;2023-03-13T12:22:35;15.20;99.90
5576;DHT22;2810;50.134;8.626;2023-03-13T12:25:22;15.20;99.90
5576;DHT22;2810;50.134;8.626;2023-03-13T12:27:50;15.10;99.90
5576;DHT22;2810;50.134;8.626;2023-03-13T12:35:25;15.00;99.90
5576;DHT22;2810;50.134;8.626;2023-03-13T12:40:37;14.90;99.90
5576;DHT22;2810;50.134;8.626;2023-03-13T12:43:13;14.90;99.90
5576;DHT22;2810;50.134;8.626;2023-03-13T12:45:45;14.90;99.90
5576;DHT22;2810;50.134;8.626;2023-03-13T12:48:17;14.90;99.90
5576;DHT22;2810;50.134;8.626;2023-03-13T12:50:58;15.20;99.90
5576;DHT22;2810;50.134;8.626;2023-03-13T12:53:29;14.90;99.90
5576;DHT22;2810;50.134;8.626;2023-03-13T13:00:52;14.80;99.90
5576;DHT22;2810;50.134;8.626;2023-03-13T13:08:33;14.60;99.90
5576;DHT22;2810;50.134;8.626;2023-03-13T13:13:44;14.50;99.90
5576;DHT22;2810;50.134;8.626;2023-03-13T13:16:10;14.30;99.90
5576;DHT22;2810;50.134;8.626;2023-03-13T13:18:39;14.50;99.90
5576;DHT22;2810;50.134;8.626;2023-03-13T13:23:39;14.60;99.90
5576;DHT22;2810;50.134;8.626;2023-03-13T13:28:48;15.00;99.90
5576;DHT22;2810;50.134;8.626;2023-03-13T13:33:58;15.20;99.90
5576;DHT22;2810;50.134;8.626;2023-03-13T13:36:25;15.20;99.90
5576;DHT22;2810;50.134;8.626;2023-03-13T13:38:51;15.50;99.90
5576;DHT22;2810;50.134;8.626;2023-03-13T13:41:25;15.30;99.90
5576;DHT22;2810;50.134;8.626;2023-03-13T13:46:42;15.60;99.90
5576;DHT22;2810;50.134;8.626;2023-03-13T13:49:15;15.90;99.90
5576;DHT22;2810;50.134;8.626;2023-03-13T13:54:30;16.30;99.90
5576;DHT22;2810;50.134;8.626;2023-03-13T13:56:57;16.60;99.90
5576;DHT22;2810;50.134;8.626;2023-03-13T13:59:39;16.90;99.90
5576;DHT22;2810;50.134;8.626;2023-03-13T14:07:00;16.50;99.90
5576;DHT22;2810;50.134;8.626;2023-03-13T14:09:34;16.60;99.90
5576;DHT22;2810;50.134;8.626;2023-03-13T14:12:03;16.60;99.90
5576;DHT22;2810;50.134;8.626;2023-03-13T14:14:47;16.60;99.90
5576;DHT22;2810;50.134;8.626;2023-03-13T14:17:12;16.60;99.90
5576;DHT22;2810;50.134;8.626;2023-03-13T14:19:39;16.90;99.90
5576;DHT22;2810;50.134;8.626;2023-03-13T14:22:06;16.70;99.90
5576;DHT22;2810;50.134;8.626;2023-03-13T14:24:32;16.60;99.90
5576;DHT22;2810;50.134;8.626;2023-03-13T14:26:57;16.60;99.90
5576;DHT22;2810;50.134;8.626;2023-03-13T14:29:23;16.50;99.90
5576;DHT22;2810;50.134;8.626;2023-03-13T14:31:52;16.60;99.90
5576;DHT22;2810;50.134;8.626;2023-03-13T14:34:19;16.80;99.90
5576;DHT22;2810;50.134;8.626;2023-03-13T14:36:54;16.60;99.90
5576;DHT22;2810;50.134;8.626;2023-03-13T14:39:23;16.70;99.90
5576;DHT22;2810;50.134;8.626;2023-03-13T14:42:09;16.80;99.90
5576;DHT22;2810;50.134;8.626;2023-03-13T14:44:36;16.90;99.90
5576;DHT22;2810;50.134;8.626;2023-03-13T14:47:07;16.90;99.90
5576;DHT22;2810;50.134;8.626;2023-03-13T14:49:33;16.90;99.90
5576;DHT22;2810;50.134;8.626;2023-03-13T14:52:06;16.80;99.90
5576;DHT22;2810;50.134;8.626;2023-03-13T14:54:50;16.70;99.90
5576;DHT22;2810;50.134;8.626;2023-03-13T14:57:25;16.60;99.90
5576;DHT22;2810;50.134;8.626;2023-03-13T14:59:51;16.50;99.90
5576;DHT22;2810;50.134;8.626;2023-03-13T15:02:19;16.40;99.90
5576;DHT22;2810;50.134;8.626;2023-03-13T15:05:01;16.70;99.90
5576;DHT22;2810;50.134;8.626;2023-03-13T15:10:16;16.00;99.90
5576;DHT22;2810;50.134;8.626;2023-03-13T15:12:42;15.80;99.90
5576;DHT22;2810;50.134;8.626;2023-03-13T15:15:08;15.50;99.90
5576;DHT22;2810;50.134;8.626;2023-03-13T15:17:34;15.40;99.90
5576;DHT22;2810;50.134;8.626;2023-03-13T15:20:00;15.00;99.90
5576;DHT22;2810;50.134;8.626;2023-03-13T15:24:50;14.20;99.90
5576;DHT22;2810;50.134;8.626;2023-03-13T15:27:17;13.80;99.90
5576;DHT22;2810;50.134;8.626;2023-03-13T15:29:43;13.40;99.90
5576;DHT22;2810;50.134;8.626;2023-03-13T15:32:11;13.30;99.90
5576;DHT22;2810;50.134;8.626;2023-03-13T15:34:39;13.10;99.90
5576;DHT22;2810;50.134;8.626;2023-03-13T15:37:04;13.00;99.90
5576;DHT22;2810;50.134;8.626;2023-03-13T15:39:29;13.20;99.90
5576;DHT22;2810;50.134;8.626;2023-03-13T15:41:55;12.80;99.90
5576;DHT22;2810;50.134;8.626;2023-03-13T15:44:20;12.70;99.90
5576;DHT22;2810;50.134;8.626;2023-03-13T15:46:46;12.70;99.90
5576;DHT22;2810;50.134;8.626;2023-03-13T15:49:12;12.70;99.90
5576;DHT22;2810;50.134;8.626;2023-03-13T15:51:37;12.70;99.90
5576;DHT22;2810;50.134;8.626;2023-03-13T15:54:03;12.70;99.90
5576;DHT22;2810;50.134;8.626;2023-03-13T15:56:29;12.70;99.90
5576;DHT22;2810;50.134;8.626;2023-03-13T15:58:58;12.60;99.90
5576;DHT22;2810;50.134;8.626;2023-03-13T16:01:23;12.60;99.90
5576;DHT22;2810;50.134;8.626;2023-03-13T16:03:49;12.60;99.90
5576;DHT22;2810;50.134;8.626;2023-03-13T16:06:15;12.60;99.90
5576;DHT22;2810;50.134;8.626;2023-03-13T16:08:41;12.60;99.90
5576;DHT22;2810;50.134;8.626;2023-03-13T16:11:08;12.80;99.90
5576;DHT22;2810;50.134;8.626;2023-03-13T16:13:34;12.60;99.90
5576;DHT22;2810;50.134;8.626;2023-03-13T16:15:59;12.60;99.90
5576;DHT22;2810;50.134;8.626;2023-03-13T16:18:25;12.50;99.90
5576;DHT22;2810;50.134;8.626;2023-03-13T16:20:50;12.50;99.90
5576;DHT22;2810;50.134;8.626;2023-03-13T16:23:16;12.50;99.90
5576;DHT22;2810;50.134;8.626;2023-03-13T16:25:42;12.50;99.90
5576;DHT22;2810;50.134;8.626;2023-03-13T16:28:10;12.40;99.90
5576;DHT22;2810;50.134;8.626;2023-03-13T16:30:36;12.40;99.90
5576;DHT22;2810;50.134;8.626;2023-03-13T16:33:01;12.40;99.90
5576;DHT22;2810;50.134;8.626;2023-03-13T16:35:27;12.40;99.90
5576;DHT22;2810;50.134;8.626;2023-03-13T16:37:54;12.30;99.90
5576;DHT22;2810;50.134;8.626;2023-03-13T16:40:21;12.40;99.90
5576;DHT22;2810;50.134;8.626;2023-03-13T16:42:46;12.30;99.90
5576;DHT22;2810;50.134;8.626;2023-03-13T16:45:12;12.30;99.90
5576;DHT22;2810;50.134;8.626;2023-03-13T16:47:38;12.30;99.90
5576;DHT22;2810;50.134;8.626;2023-03-13T16:52:42;12.20;99.90
5576;DHT22;2810;50.134;8.626;2023-03-13T16:55:08;12.20;99.90
5576;DHT22;2810;50.134;8.626;2023-03-13T16:57:33;12.20;99.90
5576;DHT22;2810;50.134;8.626;2023-03-13T16:59:58;12.10;99.90
5576;DHT22;2810;50.134;8.626;2023-03-13T17:02:24;12.10;99.90
5576;DHT22;2810;50.134;8.626;2023-03-13T17:04:50;12.10;99.90
5576;DHT22;2810;50.134;8.626;2023-03-13T17:07:19;12.00;99.90
5576;DHT22;2810;50.134;8.626;2023-03-13T17:09:45;12.00;99.90
5576;DHT22;2810;50.134;8.626;2023-03-13T17:12:10;12.00;99.90
5576;DHT22;2810;50.134;8.626;2023-03-13T17:14:36;12.00;99.90
5576;DHT22;2810;50.134;8.626;2023-03-13T17:17:01;12.00;99.90
5576;DHT22;2810;50.134;8.626;2023-03-13T17:19:27;11.90;99.90
5576;DHT22;2810;50.134;8.626;2023-03-13T17:21:52;11.90;99.90
5576;DHT22;2810;50.134;8.626;2023-03-13T17:24:18;11.90;99.90
5576;DHT22;2810;50.134;8.626;2023-03-13T17:26:43;11.90;99.90
5576;DHT22;2810;50.134;8.626;2023-03-13T17:29:11;11.80;99.90
5576;DHT22;2810;50.134;8.626;2023-03-13T17:31:38;11.80;99.90
5576;DHT22;2810;50.134;8.626;2023-03-13T17:34:05;11.80;99.90
5576;DHT22;2810;50.134;8.626;2023-03-13T17:36:31;11.80;99.90